sensor_id;sensor_type;location;lat;lon;timestamp;temperature;humidity
78647;DHT22;67961;43.460;3.762;2023-04-05T00:00:36;9.10;51.00
78647;DHT22;67961;43.460;3.762;2023-04-05T00:03:02;9.20;51.00
78647;DHT22;67961;43.460;3.762;2023-04-05T00:05:28;9.20;50.60
78647;DHT22;67961;43.460;3.762;2023-04-05T00:07:59;9.20;50.90
78647;DHT22;67961;43.460;3.762;2023-04-05T00:10:30;9.20;50.70
78647;DHT22;67961;43.460;3.762;2023-04-05T00:12:56;9.20;50.60
78647;DHT22;67961;43.460;3.762;2023-04-05T00:15:22;9.20;50.60
78647;DHT22;67961;43.460;3.762;2023-04-05T00:17:48;9.10;50.40
78647;DHT22;67961;43.460;3.762;2023-04-05T00:20:15;9.00;50.60
78647;DHT22;67961;43.460;3.762;2023-04-05T00:22:41;9.00;50.60
78647;DHT22;67961;43.460;3.762;2023-04-05T00:25:11;9.00;50.30
78647;DHT22;67961;43.460;3.762;2023-04-05T00:27:38;9.00;50.20
78647;DHT22;67961;43.460;3.762;2023-04-05T00:30:07;9.00;49.50
78647;DHT22;67961;43.460;3.762;2023-04-05T00:32:33;8.90;49.20
78647;DHT22;67961;43.460;3.762;2023-04-05T00:34:58;9.00;49.20
78647;DHT22;67961;43.460;3.762;2023-04-05T00:37:24;9.00;49.10
78647;DHT22;67961;43.460;3.762;2023-04-05T00:39:49;9.00;49.30
78647;DHT22;67961;43.460;3.762;2023-04-05T00:42:15;9.00;49.50
78647;DHT22;67961;43.460;3.762;2023-04-05T00:44:44;9.00;48.10
78647;DHT22;67961;43.460;3.762;2023-04-05T00:47:09;9.20;48.50
78647;DHT22;67961;43.460;3.762;2023-04-05T00:49:36;9.20;49.00
78647;DHT22;67961;43.460;3.762;2023-04-05T00:52:02;9.20;49.20
78647;DHT22;67961;43.460;3.762;2023-04-05T00:54:28;9.10;49.10
78647;DHT22;67961;43.460;3.762;2023-04-05T00:56:55;9.00;48.80
78647;DHT22;67961;43.460;3.762;2023-04-05T00:59:21;9.00;48.90
78647;DHT22;67961;43.460;3.762;2023-04-05T01:01:52;8.90;50.20
78647;DHT22;67961;43.460;3.762;2023-04-05T01:04:27;8.70;50.00
78647;DHT22;67961;43.460;3.762;2023-04-05T01:07:24;8.50;50.60
78647;DHT22;67961;43.460;3.762;2023-04-05T01:09:57;8.40;50.80
78647;DHT22;67961;43.460;3.762;2023-04-05T01:12:26;8.20;51.40
78647;DHT22;67961;43.460;3.762;2023-04-05T01:14:54;8.10;51.50
78647;DHT22;67961;43.460;3.762;2023-04-05T01:17:22;8.00;51.80
78647;DHT22;67961;43.460;3.762;2023-04-05T01:19:53;8.00;51.60
78647;DHT22;67961;43.460;3.762;2023-04-05T01:33:57;8.10;51.30
78647;DHT22;67961;43.460;3.762;2023-04-05T01:36:40;8.20;51.00
78647;DHT22;67961;43.460;3.762;2023-04-05T01:39:10;8.20;50.90
78647;DHT22;67961;43.460;3.762;2023-04-05T01:41:38;8.20;50.90
78647;DHT22;67961;43.460;3.762;2023-04-05T01:44:05;8.30;51.20
78647;DHT22;67961;43.460;3.762;2023-04-05T01:46:30;8.20;50.70
78647;DHT22;67961;43.460;3.762;2023-04-05T01:48:56;8.30;50.30
78647;DHT22;67961;43.460;3.762;2023-04-05T01:51:22;8.30;50.80
78647;DHT22;67961;43.460;3.762;2023-04-05T01:53:48;8.30;49.90
78647;DHT22;67961;43.460;3.762;2023-04-05T01:56:13;8.30;50.00
78647;DHT22;67961;43.460;3.762;2023-04-05T01:58:39;8.30;50.50
78647;DHT22;67961;43.460;3.762;2023-04-05T02:01:04;8.40;50.60
78647;DHT22;67961;43.460;3.762;2023-04-05T02:03:30;8.30;51.00
78647;DHT22;67961;43.460;3.762;2023-04-05T02:05:56;8.20;50.80
78647;DHT22;67961;43.460;3.762;2023-04-05T02:08:22;8.10;51.10
78647;DHT22;67961;43.460;3.762;2023-04-05T02:10:48;8.10;51.00
78647;DHT22;67961;43.460;3.762;2023-04-05T02:13:14;8.20;50.40
78647;DHT22;67961;43.460;3.762;2023-04-05T02:15:39;8.30;49.60
78647;DHT22;67961;43.460;3.762;2023-04-05T02:18:05;8.20;50.00
78647;DHT22;67961;43.460;3.762;2023-04-05T02:20:32;8.20;49.90
78647;DHT22;67961;43.460;3.762;2023-04-05T02:22:59;8.20;49.50
78647;DHT22;67961;43.460;3.762;2023-04-05T02:25:25;8.10;50.10
78647;DHT22;67961;43.460;3.762;2023-04-05T02:27:50;8.10;50.10
78647;DHT22;67961;43.460;3.762;2023-04-05T02:30:18;8.00;50.70
78647;DHT22;67961;43.460;3.762;2023-04-05T02:32:44;8.00;50.60
78647;DHT22;67961;43.460;3.762;2023-04-05T02:35:10;7.80;51.10
78647;DHT22;67961;43.460;3.762;2023-04-05T02:37:37;8.00;51.10
78647;DHT22;67961;43.460;3.762;2023-04-05T02:40:07;7.90;51.50
78647;DHT22;67961;43.460;3.762;2023-04-05T02:42:34;7.90;51.80
78647;DHT22;67961;43.460;3.762;2023-04-05T02:45:00;7.80;52.00
78647;DHT22;67961;43.460;3.762;2023-04-05T02:47:26;7.60;52.20
78647;DHT22;67961;43.460;3.762;2023-04-05T02:49:52;7.50;52.20
78647;DHT22;67961;43.460;3.762;2023-04-05T02:52:17;7.50;52.00
78647;DHT22;67961;43.460;3.762;2023-04-05T02:54:43;7.50;52.10
78647;DHT22;67961;43.460;3.762;2023-04-05T02:57:10;7.20;52.70
78647;DHT22;67961;43.460;3.762;2023-04-05T02:59:37;7.10;52.70
78647;DHT22;67961;43.460;3.762;2023-04-05T03:02:06;7.10;53.00
78647;DHT22;67961;43.460;3.762;2023-04-05T03:04:32;7.00;53.90
78647;DHT22;67961;43.460;3.762;2023-04-05T03:07:03;7.00;53.60
78647;DHT22;67961;43.460;3.762;2023-04-05T03:09:29;7.00;54.30
78647;DHT22;67961;43.460;3.762;2023-04-05T03:12:02;7.00;54.30
78647;DHT22;67961;43.460;3.762;2023-04-05T03:14:31;6.90;54.20
78647;DHT22;67961;43.460;3.762;2023-04-05T03:16:58;6.80;54.40
78647;DHT22;67961;43.460;3.762;2023-04-05T03:19:24;6.70;54.50
78647;DHT22;67961;43.460;3.762;2023-04-05T03:21:51;6.70;54.70
78647;DHT22;67961;43.460;3.762;2023-04-05T03:24:17;6.70;54.80
78647;DHT22;67961;43.460;3.762;2023-04-05T03:26:46;6.70;55.00
78647;DHT22;67961;43.460;3.762;2023-04-05T03:29:12;6.50;55.20
78647;DHT22;67961;43.460;3.762;2023-04-05T03:31:38;6.50;55.30
78647;DHT22;67961;43.460;3.762;2023-04-05T03:34:04;6.40;55.40
78647;DHT22;67961;43.460;3.762;2023-04-05T03:36:29;6.40;55.50
78647;DHT22;67961;43.460;3.762;2023-04-05T03:39:06;6.30;55.50
78647;DHT22;67961;43.460;3.762;2023-04-05T03:41:32;6.20;55.70
78647;DHT22;67961;43.460;3.762;2023-04-05T03:43:58;6.10;55.30
78647;DHT22;67961;43.460;3.762;2023-04-05T03:46:23;6.10;55.30
78647;DHT22;67961;43.460;3.762;2023-04-05T03:48:49;6.20;55.10
78647;DHT22;67961;43.460;3.762;2023-04-05T03:51:15;6.30;54.70
78647;DHT22;67961;43.460;3.762;2023-04-05T03:53:41;6.30;54.90
78647;DHT22;67961;43.460;3.762;2023-04-05T03:56:06;6.40;54.80
78647;DHT22;67961;43.460;3.762;2023-04-05T03:58:32;6.60;54.40
78647;DHT22;67961;43.460;3.762;2023-04-05T04:01:01;6.50;54.00
78647;DHT22;67961;43.460;3.762;2023-04-05T04:03:27;6.50;54.70
78647;DHT22;67961;43.460;3.762;2023-04-05T04:05:53;6.50;55.10
78647;DHT22;67961;43.460;3.762;2023-04-05T04:08:19;6.40;55.00
78647;DHT22;67961;43.460;3.762;2023-04-05T04:10:45;6.20;55.70
78647;DHT22;67961;43.460;3.762;2023-04-05T04:13:11;6.00;55.80
78647;DHT22;67961;43.460;3.762;2023-04-05T04:15:36;5.90;56.00
78647;DHT22;67961;43.460;3.762;2023-04-05T04:18:02;5.80;56.40
78647;DHT22;67961;43.460;3.762;2023-04-05T04:20:28;5.90;56.70
78647;DHT22;67961;43.460;3.762;2023-04-05T04:22:57;5.80;56.70
78647;DHT22;67961;43.460;3.762;2023-04-05T04:25:22;5.80;56.30
78647;DHT22;67961;43.460;3.762;2023-04-05T04:27:51;5.80;56.10
78647;DHT22;67961;43.460;3.762;2023-04-05T04:30:17;5.50;56.50
78647;DHT22;67961;43.460;3.762;2023-04-05T04:32:47;5.60;56.40
78647;DHT22;67961;43.460;3.762;2023-04-05T04:35:18;5.60;56.20
78647;DHT22;67961;43.460;3.762;2023-04-05T04:37:46;5.50;56.80
78647;DHT22;67961;43.460;3.762;2023-04-05T04:40:15;5.50;57.20
78647;DHT22;67961;43.460;3.762;2023-04-05T04:42:42;5.30;56.90
78647;DHT22;67961;43.460;3.762;2023-04-05T04:45:15;5.30;57.10
78647;DHT22;67961;43.460;3.762;2023-04-05T04:47:45;5.50;56.50
78647;DHT22;67961;43.460;3.762;2023-04-05T04:50:12;5.40;56.80
78647;DHT22;67961;43.460;3.762;2023-04-05T04:52:39;5.50;56.70
78647;DHT22;67961;43.460;3.762;2023-04-05T04:55:06;5.40;56.20
78647;DHT22;67961;43.460;3.762;2023-04-05T04:57:32;5.50;56.50
78647;DHT22;67961;43.460;3.762;2023-04-05T04:59:58;5.30;56.20
78647;DHT22;67961;43.460;3.762;2023-04-05T05:02:25;5.20;56.00
78647;DHT22;67961;43.460;3.762;2023-04-05T05:04:50;5.30;56.30
78647;DHT22;67961;43.460;3.762;2023-04-05T05:07:17;5.30;56.60
78647;DHT22;67961;43.460;3.762;2023-04-05T05:09:43;5.30;55.90
78647;DHT22;67961;43.460;3.762;2023-04-05T05:12:09;5.50;55.70
78647;DHT22;67961;43.460;3.762;2023-04-05T05:14:34;5.50;55.30
78647;DHT22;67961;43.460;3.762;2023-04-05T05:17:00;5.50;55.00
78647;DHT22;67961;43.460;3.762;2023-04-05T05:19:26;5.60;55.00
78647;DHT22;67961;43.460;3.762;2023-04-05T05:21:52;5.60;55.40
78647;DHT22;67961;43.460;3.762;2023-04-05T05:24:19;5.50;56.10
78647;DHT22;67961;43.460;3.762;2023-04-05T05:26:45;5.50;56.20
78647;DHT22;67961;43.460;3.762;2023-04-05T05:29:10;5.30;56.00
78647;DHT22;67961;43.460;3.762;2023-04-05T05:31:36;5.10;56.10
78647;DHT22;67961;43.460;3.762;2023-04-05T05:34:03;5.20;56.40
78647;DHT22;67961;43.460;3.762;2023-04-05T05:36:29;5.40;55.80
78647;DHT22;67961;43.460;3.762;2023-04-05T05:38:55;5.50;55.70
78647;DHT22;67961;43.460;3.762;2023-04-05T05:41:21;5.50;55.70
78647;DHT22;67961;43.460;3.762;2023-04-05T05:43:47;5.50;55.50
78647;DHT22;67961;43.460;3.762;2023-04-05T05:46:13;5.70;55.20
78647;DHT22;67961;43.460;3.762;2023-04-05T05:48:38;5.70;55.10
78647;DHT22;67961;43.460;3.762;2023-04-05T05:51:06;5.80;54.90
78647;DHT22;67961;43.460;3.762;2023-04-05T05:53:37;5.90;54.90
78647;DHT22;67961;43.460;3.762;2023-04-05T05:56:04;6.10;54.60
78647;DHT22;67961;43.460;3.762;2023-04-05T05:58:31;6.20;54.00
78647;DHT22;67961;43.460;3.762;2023-04-05T06:00:58;6.40;53.70
78647;DHT22;67961;43.460;3.762;2023-04-05T06:03:24;6.50;53.30
78647;DHT22;67961;43.460;3.762;2023-04-05T06:05:59;6.60;53.70
78647;DHT22;67961;43.460;3.762;2023-04-05T06:08:27;6.60;53.00
78647;DHT22;67961;43.460;3.762;2023-04-05T06:10:53;6.80;53.30
78647;DHT22;67961;43.460;3.762;2023-04-05T06:13:19;7.00;51.30
78647;DHT22;67961;43.460;3.762;2023-04-05T06:15:46;7.20;50.90
78647;DHT22;67961;43.460;3.762;2023-04-05T06:18:12;7.40;50.50
78647;DHT22;67961;43.460;3.762;2023-04-05T06:20:38;7.50;51.30
78647;DHT22;67961;43.460;3.762;2023-04-05T06:23:08;7.60;51.00
78647;DHT22;67961;43.460;3.762;2023-04-05T06:25:34;7.70;50.60
78647;DHT22;67961;43.460;3.762;2023-04-05T06:28:02;7.80;50.20
78647;DHT22;67961;43.460;3.762;2023-04-05T06:30:29;7.80;50.00
78647;DHT22;67961;43.460;3.762;2023-04-05T06:32:54;8.00;49.50
78647;DHT22;67961;43.460;3.762;2023-04-05T06:35:23;8.00;50.40
78647;DHT22;67961;43.460;3.762;2023-04-05T06:37:50;8.20;49.40
78647;DHT22;67961;43.460;3.762;2023-04-05T06:40:16;8.30;49.20
78647;DHT22;67961;43.460;3.762;2023-04-05T06:42:42;8.40;49.50
78647;DHT22;67961;43.460;3.762;2023-04-05T06:45:08;8.50;48.30
78647;DHT22;67961;43.460;3.762;2023-04-05T06:47:36;8.60;47.70
78647;DHT22;67961;43.460;3.762;2023-04-05T06:50:03;8.70;48.90
78647;DHT22;67961;43.460;3.762;2023-04-05T06:52:28;8.80;48.00
78647;DHT22;67961;43.460;3.762;2023-04-05T06:54:54;8.80;48.40
78647;DHT22;67961;43.460;3.762;2023-04-05T06:57:21;8.90;48.30
78647;DHT22;67961;43.460;3.762;2023-04-05T06:59:47;9.00;47.70
78647;DHT22;67961;43.460;3.762;2023-04-05T07:02:12;9.00;48.20
78647;DHT22;67961;43.460;3.762;2023-04-05T07:04:38;9.10;47.40
78647;DHT22;67961;43.460;3.762;2023-04-05T07:07:04;9.20;46.70
78647;DHT22;67961;43.460;3.762;2023-04-05T07:09:33;9.40;46.60
78647;DHT22;67961;43.460;3.762;2023-04-05T07:12:02;9.40;47.30
78647;DHT22;67961;43.460;3.762;2023-04-05T07:14:32;9.50;46.80
78647;DHT22;67961;43.460;3.762;2023-04-05T07:16:58;9.60;46.40
78647;DHT22;67961;43.460;3.762;2023-04-05T07:19:24;9.70;45.90
78647;DHT22;67961;43.460;3.762;2023-04-05T07:21:51;9.80;45.60
78647;DHT22;67961;43.460;3.762;2023-04-05T07:24:17;10.00;45.50
78647;DHT22;67961;43.460;3.762;2023-04-05T07:26:43;10.00;44.80
78647;DHT22;67961;43.460;3.762;2023-04-05T07:29:10;10.10;45.10
78647;DHT22;67961;43.460;3.762;2023-04-05T07:31:36;10.20;45.10
78647;DHT22;67961;43.460;3.762;2023-04-05T07:34:02;10.40;44.90
78647;DHT22;67961;43.460;3.762;2023-04-05T07:36:28;10.50;45.10
78647;DHT22;67961;43.460;3.762;2023-04-05T07:38:58;10.60;44.70
78647;DHT22;67961;43.460;3.762;2023-04-05T07:41:24;10.60;45.10
78647;DHT22;67961;43.460;3.762;2023-04-05T07:43:50;10.70;45.50
78647;DHT22;67961;43.460;3.762;2023-04-05T07:46:16;10.70;45.10
78647;DHT22;67961;43.460;3.762;2023-04-05T07:48:42;10.70;45.00
78647;DHT22;67961;43.460;3.762;2023-04-05T07:51:08;10.80;44.80
78647;DHT22;67961;43.460;3.762;2023-04-05T07:53:35;10.80;45.00
78647;DHT22;67961;43.460;3.762;2023-04-05T07:56:07;10.80;45.00
78647;DHT22;67961;43.460;3.762;2023-04-05T07:58:34;10.90;44.90
78647;DHT22;67961;43.460;3.762;2023-04-05T08:01:01;11.00;44.70
78647;DHT22;67961;43.460;3.762;2023-04-05T08:03:28;11.10;44.50
78647;DHT22;67961;43.460;3.762;2023-04-05T08:05:54;11.30;44.00
78647;DHT22;67961;43.460;3.762;2023-04-05T08:08:20;11.40;44.10
78647;DHT22;67961;43.460;3.762;2023-04-05T08:10:45;11.50;43.70
78647;DHT22;67961;43.460;3.762;2023-04-05T08:13:11;11.50;43.50
78647;DHT22;67961;43.460;3.762;2023-04-05T08:15:37;11.50;45.30
78647;DHT22;67961;43.460;3.762;2023-04-05T08:18:02;11.60;44.60
78647;DHT22;67961;43.460;3.762;2023-04-05T08:20:28;11.70;45.00
78647;DHT22;67961;43.460;3.762;2023-04-05T08:22:54;11.80;43.60
78647;DHT22;67961;43.460;3.762;2023-04-05T08:25:20;11.80;44.10
78647;DHT22;67961;43.460;3.762;2023-04-05T08:27:46;11.70;44.70
78647;DHT22;67961;43.460;3.762;2023-04-05T08:30:11;11.90;43.60
78647;DHT22;67961;43.460;3.762;2023-04-05T08:32:37;12.20;43.60
78647;DHT22;67961;43.460;3.762;2023-04-05T08:35:03;14.40;41.40
78647;DHT22;67961;43.460;3.762;2023-04-05T08:37:35;17.50;38.20
78647;DHT22;67961;43.460;3.762;2023-04-05T08:40:03;20.50;35.20
78647;DHT22;67961;43.460;3.762;2023-04-05T08:42:33;21.70;32.70
78647;DHT22;67961;43.460;3.762;2023-04-05T08:45:02;22.00;31.10
78647;DHT22;67961;43.460;3.762;2023-04-05T08:47:28;23.20;33.30
78647;DHT22;67961;43.460;3.762;2023-04-05T08:49:55;23.90;32.00
78647;DHT22;67961;43.460;3.762;2023-04-05T08:52:21;24.40;31.30
78647;DHT22;67961;43.460;3.762;2023-04-05T08:54:46;24.40;29.90
78647;DHT22;67961;43.460;3.762;2023-04-05T08:57:13;24.50;30.10
78647;DHT22;67961;43.460;3.762;2023-04-05T08:59:40;24.70;30.60
78647;DHT22;67961;43.460;3.762;2023-04-05T09:02:14;25.10;29.10
78647;DHT22;67961;43.460;3.762;2023-04-05T09:04:43;25.30;29.70
78647;DHT22;67961;43.460;3.762;2023-04-05T09:07:13;25.60;29.40
78647;DHT22;67961;43.460;3.762;2023-04-05T09:09:43;25.60;29.30
78647;DHT22;67961;43.460;3.762;2023-04-05T09:12:10;22.90;31.20
78647;DHT22;67961;43.460;3.762;2023-04-05T09:14:37;20.10;32.20
78647;DHT22;67961;43.460;3.762;2023-04-05T09:17:03;18.50;33.20
78647;DHT22;67961;43.460;3.762;2023-04-05T09:19:30;17.90;34.20
78647;DHT22;67961;43.460;3.762;2023-04-05T09:22:04;17.80;35.70
78647;DHT22;67961;43.460;3.762;2023-04-05T09:27:12;17.60;35.00
78647;DHT22;67961;43.460;3.762;2023-04-05T09:29:39;17.40;35.20
78647;DHT22;67961;43.460;3.762;2023-04-05T09:32:07;17.20;34.20
78647;DHT22;67961;43.460;3.762;2023-04-05T09:34:33;17.30;36.10
78647;DHT22;67961;43.460;3.762;2023-04-05T09:37:12;17.70;35.70
78647;DHT22;67961;43.460;3.762;2023-04-05T09:39:41;18.10;36.30
78647;DHT22;67961;43.460;3.762;2023-04-05T09:44:58;19.10;33.70
78647;DHT22;67961;43.460;3.762;2023-04-05T09:47:30;18.80;34.20
78647;DHT22;67961;43.460;3.762;2023-04-05T09:50:18;19.10;33.60
78647;DHT22;67961;43.460;3.762;2023-04-05T09:52:44;18.80;33.20
78647;DHT22;67961;43.460;3.762;2023-04-05T09:55:10;18.60;32.90
78647;DHT22;67961;43.460;3.762;2023-04-05T09:57:37;18.60;33.40
78647;DHT22;67961;43.460;3.762;2023-04-05T10:00:04;18.80;33.80
78647;DHT22;67961;43.460;3.762;2023-04-05T10:02:37;19.00;33.00
78647;DHT22;67961;43.460;3.762;2023-04-05T10:05:08;19.10;32.80
78647;DHT22;67961;43.460;3.762;2023-04-05T10:07:36;19.00;31.90
78647;DHT22;67961;43.460;3.762;2023-04-05T10:10:03;18.70;33.10
78647;DHT22;67961;43.460;3.762;2023-04-05T10:12:31;18.80;32.80
78647;DHT22;67961;43.460;3.762;2023-04-05T10:14:57;19.00;31.80
78647;DHT22;67961;43.460;3.762;2023-04-05T10:17:27;18.00;33.60
78647;DHT22;67961;43.460;3.762;2023-04-05T10:23:06;16.80;35.80
78647;DHT22;67961;43.460;3.762;2023-04-05T10:28:38;16.70;35.20
78647;DHT22;67961;43.460;3.762;2023-04-05T10:34:15;16.80;40.80
78647;DHT22;67961;43.460;3.762;2023-04-05T10:36:57;17.10;40.00
78647;DHT22;67961;43.460;3.762;2023-04-05T10:39:29;16.70;38.50
78647;DHT22;67961;43.460;3.762;2023-04-05T10:42:18;17.00;39.00
78647;DHT22;67961;43.460;3.762;2023-04-05T10:44:46;17.10;41.60
78647;DHT22;67961;43.460;3.762;2023-04-05T10:47:18;17.40;42.20
78647;DHT22;67961;43.460;3.762;2023-04-05T10:49:48;17.60;41.40
78647;DHT22;67961;43.460;3.762;2023-04-05T10:52:16;17.60;40.50
78647;DHT22;67961;43.460;3.762;2023-04-05T10:54:43;16.50;40.00
78647;DHT22;67961;43.460;3.762;2023-04-05T10:57:09;16.40;40.80
78647;DHT22;67961;43.460;3.762;2023-04-05T10:59:40;16.20;45.20
78647;DHT22;67961;43.460;3.762;2023-04-05T11:02:07;16.30;44.80
78647;DHT22;67961;43.460;3.762;2023-04-05T11:04:33;16.60;44.60
78647;DHT22;67961;43.460;3.762;2023-04-05T11:07:16;16.10;44.60
78647;DHT22;67961;43.460;3.762;2023-04-05T11:12:17;16.30;44.80
78647;DHT22;67961;43.460;3.762;2023-04-05T11:14:42;16.20;44.00
78647;DHT22;67961;43.460;3.762;2023-04-05T11:17:25;16.00;44.90
78647;DHT22;67961;43.460;3.762;2023-04-05T11:20:02;16.50;44.40
78647;DHT22;67961;43.460;3.762;2023-04-05T11:22:28;16.60;43.40
78647;DHT22;67961;43.460;3.762;2023-04-05T11:24:58;16.70;44.00
78647;DHT22;67961;43.460;3.762;2023-04-05T11:30:00;16.70;44.00
78647;DHT22;67961;43.460;3.762;2023-04-05T11:32:43;16.70;43.20
78647;DHT22;67961;43.460;3.762;2023-04-05T11:35:13;16.50;43.10
78647;DHT22;67961;43.460;3.762;2023-04-05T11:40:34;16.30;42.80
78647;DHT22;67961;43.460;3.762;2023-04-05T11:43:02;16.60;42.20
78647;DHT22;67961;43.460;3.762;2023-04-05T11:45:30;16.60;42.70
78647;DHT22;67961;43.460;3.762;2023-04-05T11:47:59;16.50;41.20
78647;DHT22;67961;43.460;3.762;2023-04-05T11:50:25;16.70;42.20
78647;DHT22;67961;43.460;3.762;2023-04-05T11:53:11;16.70;41.50
78647;DHT22;67961;43.460;3.762;2023-04-05T11:55:41;16.80;42.90
78647;DHT22;67961;43.460;3.762;2023-04-05T11:58:18;16.70;43.20
78647;DHT22;67961;43.460;3.762;2023-04-05T12:00:46;16.50;44.20
78647;DHT22;67961;43.460;3.762;2023-04-05T12:03:21;16.70;42.80
78647;DHT22;67961;43.460;3.762;2023-04-05T12:05:50;16.30;41.00
78647;DHT22;67961;43.460;3.762;2023-04-05T12:08:17;16.50;40.40
78647;DHT22;67961;43.460;3.762;2023-04-05T12:10:43;16.70;39.50
78647;DHT22;67961;43.460;3.762;2023-04-05T12:13:09;16.70;40.20
78647;DHT22;67961;43.460;3.762;2023-04-05T12:15:39;16.90;42.30
78647;DHT22;67961;43.460;3.762;2023-04-05T12:18:12;16.40;40.90
78647;DHT22;67961;43.460;3.762;2023-04-05T12:20:38;16.00;41.70
78647;DHT22;67961;43.460;3.762;2023-04-05T12:23:03;16.10;43.00
78647;DHT22;67961;43.460;3.762;2023-04-05T12:25:29;16.30;43.40
78647;DHT22;67961;43.460;3.762;2023-04-05T12:27:55;16.50;44.00
78647;DHT22;67961;43.460;3.762;2023-04-05T12:30:22;16.50;43.20
78647;DHT22;67961;43.460;3.762;2023-04-05T12:32:51;16.40;42.60
78647;DHT22;67961;43.460;3.762;2023-04-05T12:35:19;16.40;44.20
78647;DHT22;67961;43.460;3.762;2023-04-05T12:37:45;16.50;43.90
78647;DHT22;67961;43.460;3.762;2023-04-05T12:40:11;16.80;44.30
78647;DHT22;67961;43.460;3.762;2023-04-05T12:42:39;16.70;44.60
78647;DHT22;67961;43.460;3.762;2023-04-05T12:45:11;16.40;43.00
78647;DHT22;67961;43.460;3.762;2023-04-05T12:47:48;16.40;42.50
78647;DHT22;67961;43.460;3.762;2023-04-05T12:50:15;16.40;42.60
78647;DHT22;67961;43.460;3.762;2023-04-05T12:52:59;16.60;42.30
78647;DHT22;67961;43.460;3.762;2023-04-05T12:55:27;16.70;41.60
78647;DHT22;67961;43.460;3.762;2023-04-05T12:57:55;16.60;38.60
78647;DHT22;67961;43.460;3.762;2023-04-05T13:00:22;16.40;38.20
78647;DHT22;67961;43.460;3.762;2023-04-05T13:02:52;16.20;36.90
78647;DHT22;67961;43.460;3.762;2023-04-05T13:05:23;15.90;38.00
78647;DHT22;67961;43.460;3.762;2023-04-05T13:07:50;16.00;38.50
78647;DHT22;67961;43.460;3.762;2023-04-05T13:10:17;16.00;39.40
78647;DHT22;67961;43.460;3.762;2023-04-05T13:12:43;16.10;38.90
78647;DHT22;67961;43.460;3.762;2023-04-05T13:15:09;16.20;38.20
78647;DHT22;67961;43.460;3.762;2023-04-05T13:17:35;16.20;37.10
78647;DHT22;67961;43.460;3.762;2023-04-05T13:20:01;16.30;37.70
78647;DHT22;67961;43.460;3.762;2023-04-05T13:22:27;16.30;36.30
78647;DHT22;67961;43.460;3.762;2023-04-05T13:24:53;16.20;37.20
78647;DHT22;67961;43.460;3.762;2023-04-05T13:27:19;16.20;35.90
78647;DHT22;67961;43.460;3.762;2023-04-05T13:29:46;16.10;37.50
78647;DHT22;67961;43.460;3.762;2023-04-05T13:32:12;16.00;39.20
78647;DHT22;67961;43.460;3.762;2023-04-05T13:34:37;16.00;38.80
78647;DHT22;67961;43.460;3.762;2023-04-05T13:37:03;16.00;39.90
78647;DHT22;67961;43.460;3.762;2023-04-05T13:39:29;16.00;40.90
78647;DHT22;67961;43.460;3.762;2023-04-05T13:41:54;15.90;40.50
78647;DHT22;67961;43.460;3.762;2023-04-05T13:44:22;15.90;41.20
78647;DHT22;67961;43.460;3.762;2023-04-05T13:46:47;15.80;41.30
78647;DHT22;67961;43.460;3.762;2023-04-05T13:49:13;15.80;40.70
78647;DHT22;67961;43.460;3.762;2023-04-05T13:51:39;15.80;41.90
78647;DHT22;67961;43.460;3.762;2023-04-05T13:54:08;15.80;42.80
78647;DHT22;67961;43.460;3.762;2023-04-05T13:56:36;15.70;42.70
78647;DHT22;67961;43.460;3.762;2023-04-05T13:59:02;15.70;43.30
78647;DHT22;67961;43.460;3.762;2023-04-05T14:01:28;15.80;43.00
78647;DHT22;67961;43.460;3.762;2023-04-05T14:03:53;15.90;43.00
78647;DHT22;67961;43.460;3.762;2023-04-05T14:06:19;15.80;43.40
78647;DHT22;67961;43.460;3.762;2023-04-05T14:08:45;15.80;43.20
78647;DHT22;67961;43.460;3.762;2023-04-05T14:11:10;15.80;43.00
78647;DHT22;67961;43.460;3.762;2023-04-05T14:13:36;15.60;43.60
78647;DHT22;67961;43.460;3.762;2023-04-05T14:16:02;15.50;43.80
78647;DHT22;67961;43.460;3.762;2023-04-05T14:18:27;15.60;43.20
78647;DHT22;67961;43.460;3.762;2023-04-05T14:20:53;15.60;42.60
78647;DHT22;67961;43.460;3.762;2023-04-05T14:23:21;15.50;43.40
78647;DHT22;67961;43.460;3.762;2023-04-05T14:25:47;15.60;43.00
78647;DHT22;67961;43.460;3.762;2023-04-05T14:28:13;15.60;42.00
78647;DHT22;67961;43.460;3.762;2023-04-05T14:30:39;15.60;41.50
78647;DHT22;67961;43.460;3.762;2023-04-05T14:33:05;15.60;39.80
78647;DHT22;67961;43.460;3.762;2023-04-05T14:35:31;15.60;40.50
78647;DHT22;67961;43.460;3.762;2023-04-05T14:37:56;15.60;41.40
78647;DHT22;67961;43.460;3.762;2023-04-05T14:40:22;15.60;41.40
78647;DHT22;67961;43.460;3.762;2023-04-05T14:42:47;15.50;40.80
78647;DHT22;67961;43.460;3.762;2023-04-05T14:45:13;15.50;40.60
78647;DHT22;67961;43.460;3.762;2023-04-05T14:47:39;15.50;40.90
78647;DHT22;67961;43.460;3.762;2023-04-05T14:50:05;15.50;39.70
78647;DHT22;67961;43.460;3.762;2023-04-05T14:52:32;15.50;40.30
78647;DHT22;67961;43.460;3.762;2023-04-05T14:54:57;15.60;39.60
78647;DHT22;67961;43.460;3.762;2023-04-05T14:57:23;15.60;40.00
78647;DHT22;67961;43.460;3.762;2023-04-05T14:59:49;15.60;40.30
78647;DHT22;67961;43.460;3.762;2023-04-05T15:02:15;15.70;39.90
78647;DHT22;67961;43.460;3.762;2023-04-05T15:04:40;15.60;40.70
78647;DHT22;67961;43.460;3.762;2023-04-05T15:07:06;15.60;40.60
78647;DHT22;67961;43.460;3.762;2023-04-05T15:09:32;15.60;42.00
78647;DHT22;67961;43.460;3.762;2023-04-05T15:11:58;15.60;42.00
78647;DHT22;67961;43.460;3.762;2023-04-05T15:14:23;15.60;42.10
78647;DHT22;67961;43.460;3.762;2023-04-05T15:16:49;15.60;41.60
78647;DHT22;67961;43.460;3.762;2023-04-05T15:19:15;15.60;40.50
78647;DHT22;67961;43.460;3.762;2023-04-05T15:21:41;15.60;41.50
78647;DHT22;67961;43.460;3.762;2023-04-05T15:24:08;15.60;41.60
78647;DHT22;67961;43.460;3.762;2023-04-05T15:26:35;15.50;42.40
78647;DHT22;67961;43.460;3.762;2023-04-05T15:29:00;15.60;42.20
78647;DHT22;67961;43.460;3.762;2023-04-05T15:31:26;15.50;41.80
78647;DHT22;67961;43.460;3.762;2023-04-05T15:33:52;15.60;41.60
78647;DHT22;67961;43.460;3.762;2023-04-05T15:36:17;15.60;42.20
78647;DHT22;67961;43.460;3.762;2023-04-05T15:38:43;15.60;42.20
78647;DHT22;67961;43.460;3.762;2023-04-05T15:41:09;15.50;42.20
78647;DHT22;67961;43.460;3.762;2023-04-05T15:43:36;15.50;42.60
78647;DHT22;67961;43.460;3.762;2023-04-05T15:46:02;15.50;41.50
78647;DHT22;67961;43.460;3.762;2023-04-05T15:48:29;15.40;41.10
78647;DHT22;67961;43.460;3.762;2023-04-05T15:50:55;15.30;42.50
78647;DHT22;67961;43.460;3.762;2023-04-05T15:53:20;15.40;42.30
78647;DHT22;67961;43.460;3.762;2023-04-05T15:55:46;15.50;41.90
78647;DHT22;67961;43.460;3.762;2023-04-05T15:58:12;15.50;42.10
78647;DHT22;67961;43.460;3.762;2023-04-05T16:00:38;15.60;42.40
78647;DHT22;67961;43.460;3.762;2023-04-05T16:03:04;15.60;43.00
78647;DHT22;67961;43.460;3.762;2023-04-05T16:05:30;15.60;42.40
78647;DHT22;67961;43.460;3.762;2023-04-05T16:07:56;15.60;41.40
78647;DHT22;67961;43.460;3.762;2023-04-05T16:10:22;15.60;41.40
78647;DHT22;67961;43.460;3.762;2023-04-05T16:12:47;15.60;41.80